sensor_id;sensor_type;location;lat;lon;timestamp;temperature;humidity
39045;DHT22;52192;52.002;5.956;2023-05-20T00:01:11;15.60;58.10
39045;DHT22;52192;52.002;5.956;2023-05-20T00:03:37;15.60;58.80
39045;DHT22;52192;52.002;5.956;2023-05-20T00:06:03;15.60;58.30
39045;DHT22;52192;52.002;5.956;2023-05-20T00:08:28;15.50;58.40
39045;DHT22;52192;52.002;5.956;2023-05-20T00:10:59;15.50;58.60
39045;DHT22;52192;52.002;5.956;2023-05-20T00:13:25;15.50;58.60
39045;DHT22;52192;52.002;5.956;2023-05-20T00:15:51;15.50;58.80
39045;DHT22;52192;52.002;5.956;2023-05-20T00:18:17;15.40;58.80
39045;DHT22;52192;52.002;5.956;2023-05-20T00:20:43;15.40;59.10
39045;DHT22;52192;52.002;5.956;2023-05-20T00:23:09;15.40;59.10
39045;DHT22;52192;52.002;5.956;2023-05-20T00:25:40;15.40;59.10
39045;DHT22;52192;52.002;5.956;2023-05-20T00:28:06;15.40;59.10
39045;DHT22;52192;52.002;5.956;2023-05-20T00:30:31;15.30;59.30
39045;DHT22;52192;52.002;5.956;2023-05-20T00:32:57;15.30;59.30
39045;DHT22;52192;52.002;5.956;2023-05-20T00:35:22;15.30;59.40
39045;DHT22;52192;52.002;5.956;2023-05-20T00:38:08;15.40;59.40
39045;DHT22;52192;52.002;5.956;2023-05-20T00:40:34;15.40;59.40
39045;DHT22;52192;52.002;5.956;2023-05-20T00:43:03;15.30;59.40
39045;DHT22;52192;52.002;5.956;2023-05-20T00:45:30;15.40;59.60
39045;DHT22;52192;52.002;5.956;2023-05-20T00:47:56;15.30;59.60
39045;DHT22;52192;52.002;5.956;2023-05-20T00:50:24;15.30;59.70
39045;DHT22;52192;52.002;5.956;2023-05-20T00:52:49;15.30;59.80
39045;DHT22;52192;52.002;5.956;2023-05-20T00:55:16;15.30;59.90
39045;DHT22;52192;52.002;5.956;2023-05-20T00:57:41;15.30;60.00
39045;DHT22;52192;52.002;5.956;2023-05-20T01:00:08;15.30;60.20
39045;DHT22;52192;52.002;5.956;2023-05-20T01:02:35;15.30;60.20
39045;DHT22;52192;52.002;5.956;2023-05-20T01:05:00;15.20;60.30
39045;DHT22;52192;52.002;5.956;2023-05-20T01:07:26;15.20;60.30
39045;DHT22;52192;52.002;5.956;2023-05-20T01:09:52;15.20;60.30
39045;DHT22;52192;52.002;5.956;2023-05-20T01:12:26;15.20;60.60
39045;DHT22;52192;52.002;5.956;2023-05-20T01:15:00;15.20;60.70
39045;DHT22;52192;52.002;5.956;2023-05-20T01:17:30;15.10;60.90
39045;DHT22;52192;52.002;5.956;2023-05-20T01:19:58;15.10;60.90
39045;DHT22;52192;52.002;5.956;2023-05-20T01:22:29;15.10;60.90
39045;DHT22;52192;52.002;5.956;2023-05-20T01:24:54;15.10;60.90
39045;DHT22;52192;52.002;5.956;2023-05-20T01:27:22;15.10;61.00
39045;DHT22;52192;52.002;5.956;2023-05-20T01:29:49;15.00;61.10
39045;DHT22;52192;52.002;5.956;2023-05-20T01:32:35;15.00;61.30
39045;DHT22;52192;52.002;5.956;2023-05-20T01:35:02;15.00;61.40
39045;DHT22;52192;52.002;5.956;2023-05-20T01:37:29;15.00;61.60
39045;DHT22;52192;52.002;5.956;2023-05-20T01:39:56;15.00;61.70
39045;DHT22;52192;52.002;5.956;2023-05-20T01:42:25;15.00;61.70
39045;DHT22;52192;52.002;5.956;2023-05-20T01:44:55;15.00;61.60
39045;DHT22;52192;52.002;5.956;2023-05-20T01:47:21;15.00;61.80
39045;DHT22;52192;52.002;5.956;2023-05-20T01:49:47;15.00;62.00
39045;DHT22;52192;52.002;5.956;2023-05-20T01:52:14;15.00;62.00
39045;DHT22;52192;52.002;5.956;2023-05-20T01:54:39;15.00;62.00
39045;DHT22;52192;52.002;5.956;2023-05-20T01:57:05;14.90;62.00
39045;DHT22;52192;52.002;5.956;2023-05-20T01:59:31;15.00;62.10
39045;DHT22;52192;52.002;5.956;2023-05-20T02:01:56;15.00;62.00
39045;DHT22;52192;52.002;5.956;2023-05-20T02:04:22;15.00;62.10
39045;DHT22;52192;52.002;5.956;2023-05-20T02:06:48;15.00;62.10
39045;DHT22;52192;52.002;5.956;2023-05-20T02:09:14;15.00;62.10
39045;DHT22;52192;52.002;5.956;2023-05-20T02:11:40;15.00;62.20
39045;DHT22;52192;52.002;5.956;2023-05-20T02:14:05;15.00;62.20
39045;DHT22;52192;52.002;5.956;2023-05-20T02:16:34;14.90;62.20
39045;DHT22;52192;52.002;5.956;2023-05-20T02:19:00;14.90;62.30
39045;DHT22;52192;52.002;5.956;2023-05-20T02:21:26;14.90;62.40
39045;DHT22;52192;52.002;5.956;2023-05-20T02:23:52;14.90;62.30
39045;DHT22;52192;52.002;5.956;2023-05-20T02:26:18;14.90;62.50
39045;DHT22;52192;52.002;5.956;2023-05-20T02:28:45;14.90;62.50
39045;DHT22;52192;52.002;5.956;2023-05-20T02:31:15;14.90;62.60
39045;DHT22;52192;52.002;5.956;2023-05-20T02:33:41;14.90;62.80
39045;DHT22;52192;52.002;5.956;2023-05-20T02:36:07;14.90;62.90
39045;DHT22;52192;52.002;5.956;2023-05-20T02:38:32;14.80;62.90
39045;DHT22;52192;52.002;5.956;2023-05-20T02:40:58;14.80;63.00
39045;DHT22;52192;52.002;5.956;2023-05-20T02:43:30;14.80;63.10
39045;DHT22;52192;52.002;5.956;2023-05-20T02:45:56;14.70;63.10
39045;DHT22;52192;52.002;5.956;2023-05-20T02:48:30;14.80;63.20
39045;DHT22;52192;52.002;5.956;2023-05-20T02:50:56;14.70;63.10
39045;DHT22;52192;52.002;5.956;2023-05-20T02:53:21;14.70;63.10
39045;DHT22;52192;52.002;5.956;2023-05-20T02:55:57;14.70;63.30
39045;DHT22;52192;52.002;5.956;2023-05-20T02:58:22;14.70;63.40
39045;DHT22;52192;52.002;5.956;2023-05-20T03:00:51;14.60;63.50
39045;DHT22;52192;52.002;5.956;2023-05-20T03:03:17;14.60;64.10
39045;DHT22;52192;52.002;5.956;2023-05-20T03:05:42;14.50;64.10
39045;DHT22;52192;52.002;5.956;2023-05-20T03:08:10;14.50;64.20
39045;DHT22;52192;52.002;5.956;2023-05-20T03:10:39;14.50;64.20
39045;DHT22;52192;52.002;5.956;2023-05-20T03:13:06;14.40;64.20
39045;DHT22;52192;52.002;5.956;2023-05-20T03:15:37;14.50;64.20
39045;DHT22;52192;52.002;5.956;2023-05-20T03:18:03;14.40;64.10
39045;DHT22;52192;52.002;5.956;2023-05-20T03:20:38;14.40;64.30
39045;DHT22;52192;52.002;5.956;2023-05-20T03:23:05;14.30;64.40
39045;DHT22;52192;52.002;5.956;2023-05-20T03:25:30;14.30;64.60
39045;DHT22;52192;52.002;5.956;2023-05-20T03:27:56;14.20;64.80
39045;DHT22;52192;52.002;5.956;2023-05-20T03:30:26;14.20;64.80
39045;DHT22;52192;52.002;5.956;2023-05-20T03:32:55;14.20;64.80
39045;DHT22;52192;52.002;5.956;2023-05-20T03:35:22;14.20;64.90
39045;DHT22;52192;52.002;5.956;2023-05-20T03:37:48;14.20;64.90
39045;DHT22;52192;52.002;5.956;2023-05-20T03:40:15;14.20;65.00
39045;DHT22;52192;52.002;5.956;2023-05-20T03:42:41;14.10;65.20
39045;DHT22;52192;52.002;5.956;2023-05-20T03:45:07;14.10;65.40
39045;DHT22;52192;52.002;5.956;2023-05-20T03:47:33;14.10;65.40
39045;DHT22;52192;52.002;5.956;2023-05-20T03:49:59;14.10;65.50
39045;DHT22;52192;52.002;5.956;2023-05-20T03:52:25;14.00;65.60
39045;DHT22;52192;52.002;5.956;2023-05-20T03:54:51;14.00;65.80
39045;DHT22;52192;52.002;5.956;2023-05-20T03:57:17;14.00;65.90
39045;DHT22;52192;52.002;5.956;2023-05-20T03:59:44;14.00;66.00
39045;DHT22;52192;52.002;5.956;2023-05-20T04:02:09;13.90;66.30
39045;DHT22;52192;52.002;5.956;2023-05-20T04:04:36;13.90;66.20
39045;DHT22;52192;52.002;5.956;2023-05-20T04:07:02;13.90;66.20
39045;DHT22;52192;52.002;5.956;2023-05-20T04:09:29;13.90;66.20
39045;DHT22;52192;52.002;5.956;2023-05-20T04:11:55;14.00;66.30
39045;DHT22;52192;52.002;5.956;2023-05-20T04:14:21;13.90;66.30
39045;DHT22;52192;52.002;5.956;2023-05-20T04:16:47;13.90;66.50
39045;DHT22;52192;52.002;5.956;2023-05-20T04:19:14;14.00;66.50
39045;DHT22;52192;52.002;5.956;2023-05-20T04:21:41;14.00;66.50
39045;DHT22;52192;52.002;5.956;2023-05-20T04:24:07;13.90;66.50
39045;DHT22;52192;52.002;5.956;2023-05-20T04:26:33;13.90;66.70
39045;DHT22;52192;52.002;5.956;2023-05-20T04:29:01;13.90;66.80
39045;DHT22;52192;52.002;5.956;2023-05-20T04:31:29;13.90;66.80
39045;DHT22;52192;52.002;5.956;2023-05-20T04:33:55;13.90;66.80
39045;DHT22;52192;52.002;5.956;2023-05-20T04:36:21;13.90;66.90
39045;DHT22;52192;52.002;5.956;2023-05-20T04:38:53;14.00;66.90
39045;DHT22;52192;52.002;5.956;2023-05-20T04:41:19;14.00;66.80
39045;DHT22;52192;52.002;5.956;2023-05-20T04:43:44;14.00;66.80
39045;DHT22;52192;52.002;5.956;2023-05-20T04:46:10;14.00;66.80
39045;DHT22;52192;52.002;5.956;2023-05-20T04:48:36;14.10;66.70
39045;DHT22;52192;52.002;5.956;2023-05-20T04:51:01;14.10;66.80
39045;DHT22;52192;52.002;5.956;2023-05-20T04:53:27;14.20;66.70
39045;DHT22;52192;52.002;5.956;2023-05-20T04:55:55;14.20;66.70
39045;DHT22;52192;52.002;5.956;2023-05-20T04:58:21;14.30;66.60
39045;DHT22;52192;52.002;5.956;2023-05-20T05:00:49;14.40;66.40
39045;DHT22;52192;52.002;5.956;2023-05-20T05:03:16;14.40;66.30
39045;DHT22;52192;52.002;5.956;2023-05-20T05:05:42;14.40;66.30
39045;DHT22;52192;52.002;5.956;2023-05-20T05:08:08;14.40;66.30
39045;DHT22;52192;52.002;5.956;2023-05-20T05:10:34;14.50;66.40
39045;DHT22;52192;52.002;5.956;2023-05-20T05:13:00;14.50;66.20
39045;DHT22;52192;52.002;5.956;2023-05-20T05:15:27;14.60;66.10
39045;DHT22;52192;52.002;5.956;2023-05-20T05:17:53;14.60;66.10
39045;DHT22;52192;52.002;5.956;2023-05-20T05:20:19;14.60;66.10
39045;DHT22;52192;52.002;5.956;2023-05-20T05:22:44;14.60;65.90
39045;DHT22;52192;52.002;5.956;2023-05-20T05:25:11;14.70;65.90
39045;DHT22;52192;52.002;5.956;2023-05-20T05:27:37;14.70;65.90
39045;DHT22;52192;52.002;5.956;2023-05-20T05:30:03;14.80;65.80
39045;DHT22;52192;52.002;5.956;2023-05-20T05:32:29;14.80;65.80
39045;DHT22;52192;52.002;5.956;2023-05-20T05:34:55;14.90;65.70
39045;DHT22;52192;52.002;5.956;2023-05-20T05:37:21;14.90;65.70
39045;DHT22;52192;52.002;5.956;2023-05-20T05:39:47;15.00;65.60
39045;DHT22;52192;52.002;5.956;2023-05-20T05:42:12;15.10;65.50
39045;DHT22;52192;52.002;5.956;2023-05-20T05:44:38;15.10;65.40
39045;DHT22;52192;52.002;5.956;2023-05-20T05:47:04;15.20;65.30
39045;DHT22;52192;52.002;5.956;2023-05-20T05:49:31;15.20;65.20
39045;DHT22;52192;52.002;5.956;2023-05-20T05:51:57;15.20;65.30
39045;DHT22;52192;52.002;5.956;2023-05-20T05:54:26;15.30;65.10
39045;DHT22;52192;52.002;5.956;2023-05-20T05:56:52;15.40;65.10
39045;DHT22;52192;52.002;5.956;2023-05-20T05:59:18;15.50;65.10
39045;DHT22;52192;52.002;5.956;2023-05-20T06:01:44;15.50;64.90
39045;DHT22;52192;52.002;5.956;2023-05-20T06:04:10;15.50;64.90
39045;DHT22;52192;52.002;5.956;2023-05-20T06:06:36;15.60;64.80
39045;DHT22;52192;52.002;5.956;2023-05-20T06:09:01;15.70;64.60
39045;DHT22;52192;52.002;5.956;2023-05-20T06:11:27;15.80;64.40
39045;DHT22;52192;52.002;5.956;2023-05-20T06:13:53;15.80;64.30
39045;DHT22;52192;52.002;5.956;2023-05-20T06:16:19;15.90;64.20
39045;DHT22;52192;52.002;5.956;2023-05-20T06:18:45;16.00;64.10
39045;DHT22;52192;52.002;5.956;2023-05-20T06:21:11;16.10;63.90
39045;DHT22;52192;52.002;5.956;2023-05-20T06:23:37;16.20;63.90
39045;DHT22;52192;52.002;5.956;2023-05-20T06:26:03;16.20;63.80
39045;DHT22;52192;52.002;5.956;2023-05-20T06:28:29;16.30;63.60
39045;DHT22;52192;52.002;5.956;2023-05-20T06:30:55;16.40;63.40
39045;DHT22;52192;52.002;5.956;2023-05-20T06:33:26;16.50;63.20
39045;DHT22;52192;52.002;5.956;2023-05-20T06:35:52;16.50;63.10
39045;DHT22;52192;52.002;5.956;2023-05-20T06:38:18;16.60;62.80
39045;DHT22;52192;52.002;5.956;2023-05-20T06:40:44;16.70;62.70
39045;DHT22;52192;52.002;5.956;2023-05-20T06:43:10;16.80;62.50
39045;DHT22;52192;52.002;5.956;2023-05-20T06:45:35;16.90;62.30
39045;DHT22;52192;52.002;5.956;2023-05-20T06:48:01;17.00;62.10
39045;DHT22;52192;52.002;5.956;2023-05-20T06:50:26;17.10;61.80
39045;DHT22;52192;52.002;5.956;2023-05-20T06:52:53;17.10;61.70
39045;DHT22;52192;52.002;5.956;2023-05-20T06:55:18;17.10;62.20
39045;DHT22;52192;52.002;5.956;2023-05-20T06:57:44;17.20;61.50
39045;DHT22;52192;52.002;5.956;2023-05-20T07:00:10;17.30;61.40
39045;DHT22;52192;52.002;5.956;2023-05-20T07:02:38;17.40;61.20
39045;DHT22;52192;52.002;5.956;2023-05-20T07:05:04;17.40;60.80
39045;DHT22;52192;52.002;5.956;2023-05-20T07:07:30;17.40;60.70
39045;DHT22;52192;52.002;5.956;2023-05-20T07:09:56;17.60;60.60
39045;DHT22;52192;52.002;5.956;2023-05-20T07:12:22;17.60;60.30
39045;DHT22;52192;52.002;5.956;2023-05-20T07:14:47;17.60;60.10
39045;DHT22;52192;52.002;5.956;2023-05-20T07:17:13;17.70;60.00
39045;DHT22;52192;52.002;5.956;2023-05-20T07:19:39;17.70;59.80
39045;DHT22;52192;52.002;5.956;2023-05-20T07:22:04;17.80;59.80
39045;DHT22;52192;52.002;5.956;2023-05-20T07:24:30;17.90;59.70
39045;DHT22;52192;52.002;5.956;2023-05-20T07:26:56;18.00;59.60
39045;DHT22;52192;52.002;5.956;2023-05-20T07:29:22;18.10;59.30
39045;DHT22;52192;52.002;5.956;2023-05-20T07:31:47;18.20;59.10
39045;DHT22;52192;52.002;5.956;2023-05-20T07:34:13;18.20;58.90
39045;DHT22;52192;52.002;5.956;2023-05-20T07:36:39;18.30;59.00
39045;DHT22;52192;52.002;5.956;2023-05-20T07:39:05;18.40;58.70
39045;DHT22;52192;52.002;5.956;2023-05-20T07:41:31;18.50;58.50
39045;DHT22;52192;52.002;5.956;2023-05-20T07:43:56;18.60;58.40
39045;DHT22;52192;52.002;5.956;2023-05-20T07:46:22;18.60;58.10
39045;DHT22;52192;52.002;5.956;2023-05-20T07:48:47;18.70;57.80
39045;DHT22;52192;52.002;5.956;2023-05-20T07:51:13;18.80;57.70
39045;DHT22;52192;52.002;5.956;2023-05-20T07:53:39;18.80;57.60
39045;DHT22;52192;52.002;5.956;2023-05-20T07:56:05;18.90;57.40
39045;DHT22;52192;52.002;5.956;2023-05-20T07:58:31;19.00;57.10
39045;DHT22;52192;52.002;5.956;2023-05-20T08:00:57;19.00;56.90
39045;DHT22;52192;52.002;5.956;2023-05-20T08:03:22;19.20;57.40
39045;DHT22;52192;52.002;5.956;2023-05-20T08:05:48;19.20;56.50
39045;DHT22;52192;52.002;5.956;2023-05-20T08:08:14;19.30;56.30
39045;DHT22;52192;52.002;5.956;2023-05-20T08:10:40;19.20;55.80
39045;DHT22;52192;52.002;5.956;2023-05-20T08:13:06;19.20;55.60
39045;DHT22;52192;52.002;5.956;2023-05-20T08:15:32;19.30;55.90
39045;DHT22;52192;52.002;5.956;2023-05-20T08:17:57;19.30;55.70
39045;DHT22;52192;52.002;5.956;2023-05-20T08:20:23;19.40;55.50
39045;DHT22;52192;52.002;5.956;2023-05-20T08:22:51;19.50;55.40
39045;DHT22;52192;52.002;5.956;2023-05-20T08:25:16;19.50;55.10
39045;DHT22;52192;52.002;5.956;2023-05-20T08:27:42;19.60;55.00
39045;DHT22;52192;52.002;5.956;2023-05-20T08:30:08;19.70;54.70
39045;DHT22;52192;52.002;5.956;2023-05-20T08:32:35;19.80;54.50
39045;DHT22;52192;52.002;5.956;2023-05-20T08:35:02;19.80;53.90
39045;DHT22;52192;52.002;5.956;2023-05-20T08:37:28;19.80;53.70
39045;DHT22;52192;52.002;5.956;2023-05-20T08:39:54;19.90;53.40
39045;DHT22;52192;52.002;5.956;2023-05-20T08:42:23;19.90;53.30
39045;DHT22;52192;52.002;5.956;2023-05-20T08:44:53;19.90;53.20
39045;DHT22;52192;52.002;5.956;2023-05-20T08:47:20;20.00;53.40
39045;DHT22;52192;52.002;5.956;2023-05-20T08:49:49;20.10;53.30
39045;DHT22;52192;52.002;5.956;2023-05-20T08:52:16;20.20;53.10
39045;DHT22;52192;52.002;5.956;2023-05-20T08:54:44;20.20;52.80
39045;DHT22;52192;52.002;5.956;2023-05-20T08:57:11;20.30;52.10
39045;DHT22;52192;52.002;5.956;2023-05-20T08:59:45;20.30;51.90
39045;DHT22;52192;52.002;5.956;2023-05-20T09:02:11;20.40;52.00
39045;DHT22;52192;52.002;5.956;2023-05-20T09:04:37;20.50;51.50
39045;DHT22;52192;52.002;5.956;2023-05-20T09:07:04;20.50;51.10
39045;DHT22;52192;52.002;5.956;2023-05-20T09:09:31;20.50;51.10
39045;DHT22;52192;52.002;5.956;2023-05-20T09:11:59;20.60;50.90
39045;DHT22;52192;52.002;5.956;2023-05-20T09:14:24;20.70;50.40
39045;DHT22;52192;52.002;5.956;2023-05-20T09:16:51;20.70;50.40
39045;DHT22;52192;52.002;5.956;2023-05-20T09:19:20;20.80;50.50
39045;DHT22;52192;52.002;5.956;2023-05-20T09:21:46;20.90;49.60
39045;DHT22;52192;52.002;5.956;2023-05-20T09:24:12;20.90;49.50
39045;DHT22;52192;52.002;5.956;2023-05-20T09:26:38;21.00;49.40
39045;DHT22;52192;52.002;5.956;2023-05-20T09:29:03;21.00;49.30
39045;DHT22;52192;52.002;5.956;2023-05-20T09:31:33;21.00;49.40
39045;DHT22;52192;52.002;5.956;2023-05-20T09:34:00;21.10;49.40
39045;DHT22;52192;52.002;5.956;2023-05-20T09:36:28;21.20;49.30
39045;DHT22;52192;52.002;5.956;2023-05-20T09:38:59;21.40;49.50
39045;DHT22;52192;52.002;5.956;2023-05-20T09:41:33;21.50;49.10
39045;DHT22;52192;52.002;5.956;2023-05-20T09:44:00;21.60;48.80
39045;DHT22;52192;52.002;5.956;2023-05-20T09:46:27;21.80;48.50
39045;DHT22;52192;52.002;5.956;2023-05-20T09:48:53;21.90;48.30
39045;DHT22;52192;52.002;5.956;2023-05-20T09:51:20;21.90;48.10
39045;DHT22;52192;52.002;5.956;2023-05-20T09:53:47;22.00;47.90
39045;DHT22;52192;52.002;5.956;2023-05-20T09:56:13;21.90;47.50
39045;DHT22;52192;52.002;5.956;2023-05-20T09:58:39;21.80;47.40
39045;DHT22;52192;52.002;5.956;2023-05-20T10:01:06;21.80;47.80
39045;DHT22;52192;52.002;5.956;2023-05-20T10:03:32;21.80;47.80
39045;DHT22;52192;52.002;5.956;2023-05-20T10:11:18;22.00;47.60
39045;DHT22;52192;52.002;5.956;2023-05-20T10:16:41;22.20;47.20
39045;DHT22;52192;52.002;5.956;2023-05-20T10:19:27;22.30;47.10
39045;DHT22;52192;52.002;5.956;2023-05-20T10:22:26;22.50;47.00
39045;DHT22;52192;52.002;5.956;2023-05-20T10:24:58;22.60;46.80
39045;DHT22;52192;52.002;5.956;2023-05-20T10:27:24;22.70;46.60
39045;DHT22;52192;52.002;5.956;2023-05-20T10:29:55;22.70;46.30
39045;DHT22;52192;52.002;5.956;2023-05-20T10:34:50;22.90;46.20
39045;DHT22;52192;52.002;5.956;2023-05-20T10:37:27;23.00;45.40
39045;DHT22;52192;52.002;5.956;2023-05-20T10:40:04;23.00;45.40
39045;DHT22;52192;52.002;5.956;2023-05-20T10:42:31;23.10;45.80
39045;DHT22;52192;52.002;5.956;2023-05-20T10:44:56;23.20;45.70
39045;DHT22;52192;52.002;5.956;2023-05-20T10:47:22;23.30;45.70
39045;DHT22;52192;52.002;5.956;2023-05-20T10:49:48;23.50;45.60
39045;DHT22;52192;52.002;5.956;2023-05-20T10:52:15;23.60;44.70
39045;DHT22;52192;52.002;5.956;2023-05-20T10:54:46;23.60;44.60
39045;DHT22;52192;52.002;5.956;2023-05-20T10:57:12;23.60;44.70
39045;DHT22;52192;52.002;5.956;2023-05-20T10:59:38;23.70;44.60
39045;DHT22;52192;52.002;5.956;2023-05-20T11:02:05;23.80;44.10
39045;DHT22;52192;52.002;5.956;2023-05-20T11:04:31;23.90;44.20
39045;DHT22;52192;52.002;5.956;2023-05-20T11:06:57;24.00;44.10
39045;DHT22;52192;52.002;5.956;2023-05-20T11:09:23;24.00;44.20
39045;DHT22;52192;52.002;5.956;2023-05-20T11:11:53;24.10;43.90
39045;DHT22;52192;52.002;5.956;2023-05-20T11:14:20;24.00;43.60
39045;DHT22;52192;52.002;5.956;2023-05-20T11:16:50;24.10;43.90
39045;DHT22;52192;52.002;5.956;2023-05-20T11:19:16;24.10;43.70
39045;DHT22;52192;52.002;5.956;2023-05-20T11:21:44;24.20;43.70
39045;DHT22;52192;52.002;5.956;2023-05-20T11:24:11;24.20;43.50
39045;DHT22;52192;52.002;5.956;2023-05-20T11:26:37;24.10;43.60
39045;DHT22;52192;52.002;5.956;2023-05-20T11:29:03;24.10;43.80
39045;DHT22;52192;52.002;5.956;2023-05-20T11:31:30;23.90;43.80
39045;DHT22;52192;52.002;5.956;2023-05-20T11:33:58;23.80;44.10
39045;DHT22;52192;52.002;5.956;2023-05-20T11:36:26;23.80;44.40
39045;DHT22;52192;52.002;5.956;2023-05-20T11:38:53;23.70;44.50
39045;DHT22;52192;52.002;5.956;2023-05-20T11:41:23;23.70;44.40
39045;DHT22;52192;52.002;5.956;2023-05-20T11:43:59;23.60;44.30
39045;DHT22;52192;52.002;5.956;2023-05-20T11:46:26;23.60;44.60
39045;DHT22;52192;52.002;5.956;2023-05-20T11:48:55;23.50;44.70
39045;DHT22;52192;52.002;5.956;2023-05-20T11:51:23;23.60;44.70
39045;DHT22;52192;52.002;5.956;2023-05-20T11:53:49;23.70;44.60
39045;DHT22;52192;52.002;5.956;2023-05-20T11:56:15;23.70;44.20
39045;DHT22;52192;52.002;5.956;2023-05-20T11:58:42;23.70;43.90
39045;DHT22;52192;52.002;5.956;2023-05-20T12:01:08;23.70;44.20
39045;DHT22;52192;52.002;5.956;2023-05-20T12:03:34;23.80;44.40
39045;DHT22;52192;52.002;5.956;2023-05-20T12:06:01;24.00;44.40
39045;DHT22;52192;52.002;5.956;2023-05-20T12:08:27;24.00;44.20
39045;DHT22;52192;52.002;5.956;2023-05-20T12:10:53;24.10;44.20
39045;DHT22;52192;52.002;5.956;2023-05-20T12:13:18;24.20;43.90
39045;DHT22;52192;52.002;5.956;2023-05-20T12:15:44;24.20;43.70
39045;DHT22;52192;52.002;5.956;2023-05-20T12:18:10;24.20;43.50
39045;DHT22;52192;52.002;5.956;2023-05-20T12:20:36;24.20;43.70
39045;DHT22;52192;52.002;5.956;2023-05-20T12:23:02;24.10;43.40
39045;DHT22;52192;52.002;5.956;2023-05-20T12:25:28;24.00;43.60
39045;DHT22;52192;52.002;5.956;2023-05-20T12:27:54;23.90;43.80
39045;DHT22;52192;52.002;5.956;2023-05-20T12:30:21;23.80;43.90
39045;DHT22;52192;52.002;5.956;2023-05-20T12:32:48;23.70;44.00
39045;DHT22;52192;52.002;5.956;2023-05-20T12:35:15;23.70;44.40
39045;DHT22;52192;52.002;5.956;2023-05-20T12:37:42;23.70;44.60
39045;DHT22;52192;52.002;5.956;2023-05-20T12:40:10;23.70;44.80
39045;DHT22;52192;52.002;5.956;2023-05-20T12:42:37;23.70;44.70
39045;DHT22;52192;52.002;5.956;2023-05-20T12:45:04;23.70;44.70
39045;DHT22;52192;52.002;5.956;2023-05-20T12:47:32;23.70;44.80
39045;DHT22;52192;52.002;5.956;2023-05-20T12:49:58;23.80;44.90
39045;DHT22;52192;52.002;5.956;2023-05-20T12:52:25;23.80;44.60
39045;DHT22;52192;52.002;5.956;2023-05-20T12:54:52;23.80;44.60
39045;DHT22;52192;52.002;5.956;2023-05-20T12:57:17;23.90;44.60
39045;DHT22;52192;52.002;5.956;2023-05-20T12:59:44;24.00;44.40
39045;DHT22;52192;52.002;5.956;2023-05-20T13:02:10;24.10;44.30
39045;DHT22;52192;52.002;5.956;2023-05-20T13:04:35;24.20;44.90
39045;DHT22;52192;52.002;5.956;2023-05-20T13:07:02;24.30;44.20
39045;DHT22;52192;52.002;5.956;2023-05-20T13:09:27;24.50;44.00
39045;DHT22;52192;52.002;5.956;2023-05-20T13:11:53;24.70;44.00
39045;DHT22;52192;52.002;5.956;2023-05-20T13:14:19;24.80;44.10
39045;DHT22;52192;52.002;5.956;2023-05-20T13:16:46;24.70;44.10
39045;DHT22;52192;52.002;5.956;2023-05-20T13:19:12;24.70;44.30
39045;DHT22;52192;52.002;5.956;2023-05-20T13:21:38;24.60;44.00
39045;DHT22;52192;52.002;5.956;2023-05-20T13:24:04;24.40;44.10
39045;DHT22;52192;52.002;5.956;2023-05-20T13:26:30;24.20;44.90
39045;DHT22;52192;52.002;5.956;2023-05-20T13:28:55;24.20;44.40
39045;DHT22;52192;52.002;5.956;2023-05-20T13:31:21;24.20;44.30
39045;DHT22;52192;52.002;5.956;2023-05-20T13:33:47;24.20;44.20
39045;DHT22;52192;52.002;5.956;2023-05-20T13:36:13;24.30;44.30
39045;DHT22;52192;52.002;5.956;2023-05-20T13:38:38;24.40;44.40
39045;DHT22;52192;52.002;5.956;2023-05-20T13:41:04;24.40;44.30
39045;DHT22;52192;52.002;5.956;2023-05-20T13:43:30;24.60;44.40
39045;DHT22;52192;52.002;5.956;2023-05-20T13:45:58;24.70;44.10
39045;DHT22;52192;52.002;5.956;2023-05-20T13:48:23;24.80;44.00
39045;DHT22;52192;52.002;5.956;2023-05-20T13:50:49;25.00;43.80
39045;DHT22;52192;52.002;5.956;2023-05-20T13:53:15;25.20;43.50
39045;DHT22;52192;52.002;5.956;2023-05-20T13:55:41;25.40;43.40
39045;DHT22;52192;52.002;5.956;2023-05-20T13:58:06;25.50;43.30
39045;DHT22;52192;52.002;5.956;2023-05-20T14:00:36;25.60;43.10
39045;DHT22;52192;52.002;5.956;2023-05-20T14:03:02;25.70;42.80
39045;DHT22;52192;52.002;5.956;2023-05-20T14:05:30;25.60;42.80
39045;DHT22;52192;52.002;5.956;2023-05-20T14:07:57;25.60;42.80
39045;DHT22;52192;52.002;5.956;2023-05-20T14:10:22;25.60;42.60
39045;DHT22;52192;52.002;5.956;2023-05-20T14:12:48;25.60;42.40
39045;DHT22;52192;52.002;5.956;2023-05-20T14:15:14;25.60;42.30
39045;DHT22;52192;52.002;5.956;2023-05-20T14:17:39;25.40;42.50
39045;DHT22;52192;52.002;5.956;2023-05-20T14:20:07;25.20;42.80
39045;DHT22;52192;52.002;5.956;2023-05-20T14:22:32;25.40;43.10
39045;DHT22;52192;52.002;5.956;2023-05-20T14:24:58;25.60;42.80
39045;DHT22;52192;52.002;5.956;2023-05-20T14:27:24;25.70;42.20
39045;DHT22;52192;52.002;5.956;2023-05-20T14:29:49;25.70;42.40
39045;DHT22;52192;52.002;5.956;2023-05-20T14:32:15;25.70;42.30
39045;DHT22;52192;52.002;5.956;2023-05-20T14:34:41;25.70;42.00
39045;DHT22;52192;52.002;5.956;2023-05-20T14:37:06;25.60;41.80
39045;DHT22;52192;52.002;5.956;2023-05-20T14:39:37;25.20;41.90
39045;DHT22;52192;52.002;5.956;2023-05-20T14:42:03;25.10;42.40
39045;DHT22;52192;52.002;5.956;2023-05-20T14:44:29;25.30;42.40
39045;DHT22;52192;52.002;5.956;2023-05-20T14:46:55;25.70;42.10
39045;DHT22;52192;52.002;5.956;2023-05-20T14:49:22;25.80;41.50
39045;DHT22;52192;52.002;5.956;2023-05-20T14:51:48;25.60;41.50
39045;DHT22;52192;52.002;5.956;2023-05-20T14:54:13;25.30;41.80
39045;DHT22;52192;52.002;5.956;2023-05-20T14:56:43;25.00;42.00
39045;DHT22;52192;52.002;5.956;2023-05-20T14:59:08;24.90;42.40
39045;DHT22;52192;52.002;5.956;2023-05-20T15:01:34;25.00;42.10
39045;DHT22;52192;52.002;5.956;2023-05-20T15:04:00;24.90;42.10
39045;DHT22;52192;52.002;5.956;2023-05-20T15:06:26;24.90;42.40
39045;DHT22;52192;52.002;5.956;2023-05-20T15:08:51;24.80;42.40
39045;DHT22;52192;52.002;5.956;2023-05-20T15:11:18;24.70;42.60
39045;DHT22;52192;52.002;5.956;2023-05-20T15:13:43;24.70;42.80
39045;DHT22;52192;52.002;5.956;2023-05-20T15:16:11;24.60;43.00
39045;DHT22;52192;52.002;5.956;2023-05-20T15:18:37;24.60;43.00
39045;DHT22;52192;52.002;5.956;2023-05-20T15:21:03;24.50;43.00
39045;DHT22;52192;52.002;5.956;2023-05-20T15:23:29;24.40;43.10
39045;DHT22;52192;52.002;5.956;2023-05-20T15:25:55;24.30;43.00
39045;DHT22;52192;52.002;5.956;2023-05-20T15:28:23;24.10;43.00
39045;DHT22;52192;52.002;5.956;2023-05-20T15:30:55;24.00;43.30
39045;DHT22;52192;52.002;5.956;2023-05-20T15:33:20;24.00;43.60
39045;DHT22;52192;52.002;5.956;2023-05-20T15:35:47;23.90;43.60
39045;DHT22;52192;52.002;5.956;2023-05-20T15:38:13;24.00;43.50